Mid City West, Pennsylvania
Current Conditions -  °F | °C
As of 5:54 AM on Monday 22 Dec 2014 (Local Time) from KPHL Reporting Station
Overcast Overcast  
Wind Chill: 23°   Ceiling: 2200
Heat Index: 30°   Visibility: 10mi
Dew Point: 23°   Wind: 7mph
Humidity: 75%   Direction: 340°NNW
Pressure: 30.31"   Gusts: NA
Location:  39.9534°N, 75.1738°W
Report Text: KPHL 221054Z 34006KT 10SM BKN022 OVC200 M01/M05 A3031 RMK AO2 SLP264 T10111050
Loading
Personal Weather Stations






























Interactive Weather Map New forecast layout! Learn more

10-Day Weather Forecast

Advertisements
Track Severe Weather on mobile